Time;durP1;ratioP1;P1;durP2;ratioP2;P2;SDS_P1;SDS_P2;PMS_P1;PMS_P2;Temp;Humidity;BMP_temperature;BMP_pressure;BME280_temperature;BME280_humidity;BME280_pressure;Samples;Min_cycle;Max_cycle;Signal;HPM_P1;HPM_P2
2023/10/09 00:02:12;;;;;;;1.52;0.70;;;8.00;99.90;;;;;;5058623;28;20051;-62
2023/10/09 00:04:45;;;;;;;0.47;0.40;;;8.00;99.90;;;;;;5055792;28;20060;-63
2023/10/09 00:07:12;;;;;;;1.33;0.85;;;8.00;99.90;;;;;;5055062;28;20029;-65
2023/10/09 00:09:50;;;;;;;1.80;0.80;;;8.00;99.90;;;;;;5057039;28;20048;-63
2023/10/09 00:12:22;;;;;;;0.70;0.40;;;8.00;99.90;;;;;;5055634;28;20071;-63
2023/10/09 00:14:55;;;;;;;1.33;0.73;;;8.00;99.90;;;;;;5043440;28;20457;-62
2023/10/09 00:17:23;;;;;;;1.00;0.60;;;8.00;99.90;;;;;;5058060;28;20136;-67
2023/10/09 00:19:51;;;;;;;1.38;0.70;;;8.00;99.90;;;;;;5060853;28;20598;-64
2023/10/09 00:22:29;;;;;;;3.40;0.60;;;7.90;99.90;;;;;;5052525;28;20483;-63
2023/10/09 00:25:10;;;;;;;1.08;0.70;;;7.90;99.90;;;;;;5058198;28;20578;-65
2023/10/09 00:27:42;;;;;;;6.28;0.60;;;7.90;99.90;;;;;;5057566;28;20045;-63
2023/10/09 00:30:15;;;;;;;5.32;0.60;;;7.90;99.90;;;;;;5059995;28;20044;-66
2023/10/09 00:32:50;;;;;;;3.63;0.80;;;7.90;99.90;;;;;;5057378;28;20076;-62
2023/10/09 00:35:36;;;;;;;2.25;0.88;;;7.90;99.90;;;;;;5075857;28;20036;-64
2023/10/09 00:38:20;;;;;;;3.85;1.13;;;7.90;99.90;;;;;;5059032;28;20064;-66
2023/10/09 00:41:26;;;;;;;1.70;0.60;;;7.90;99.90;;;;;;5059146;28;20037;-64
2023/10/09 00:43:45;;;;;;;2.60;0.38;;;7.90;99.90;;;;;;5035824;28;20618;-62
2023/10/09 00:46:23;;;;;;;2.53;0.65;;;7.90;99.90;;;;;;5055933;28;20094;-64
2023/10/09 00:49:01;;;;;;;0.30;0.30;;;7.90;99.90;;;;;;5057132;28;20111;-63
2023/10/09 00:51:35;;;;;;;0.88;0.60;;;7.90;99.90;;;;;;5053686;28;20106;-65
2023/10/09 00:54:13;;;;;;;0.85;0.30;;;7.80;99.90;;;;;;5055284;28;20080;-64
2023/10/09 00:56:52;;;;;;;0.80;0.40;;;7.80;99.90;;;;;;5060303;28;20044;-66
2023/10/09 00:59:20;;;;;;;1.83;0.50;;;7.80;99.90;;;;;;5058921;28;20043;-65
2023/10/09 01:01:58;;;;;;;2.50;0.85;;;7.80;99.90;;;;;;5042198;28;20098;-63
2023/10/09 01:04:29;;;;;;;0.45;0.40;;;7.80;99.90;;;;;;5054549;28;20028;-64
2023/10/09 01:07:15;;;;;;;1.17;0.47;;;7.80;99.90;;;;;;5053634;28;20353;-70
2023/10/09 01:09:44;;;;;;;1.98;0.75;;;7.80;99.90;;;;;;5058278;28;20044;-64
2023/10/09 01:12:17;;;;;;;0.90;0.50;;;7.80;99.90;;;;;;5058191;28;20041;-65
2023/10/09 01:14:45;;;;;;;1.15;0.40;;;7.70;99.90;;;;;;5037510;28;20448;-64
2023/10/09 01:17:25;;;;;;;1.13;0.50;;;7.80;99.90;;;;;;5058253;28;20051;-64
2023/10/09 01:19:57;;;;;;;1.98;0.45;;;7.80;99.90;;;;;;5050112;28;20053;-63
2023/10/09 01:22:24;;;;;;;0.40;0.40;;;7.80;99.90;;;;;;5059420;28;20068;-65
2023/10/09 01:24:55;;;;;;;2.00;0.60;;;7.80;99.90;;;;;;5065219;28;20064;-63
2023/10/09 01:27:25;;;;;;;0.57;0.30;;;7.80;99.90;;;;;;5062131;28;20036;-65
2023/10/09 01:29:52;;;;;;;2.20;0.35;;;7.80;99.90;;;;;;5073630;28;20045;-65
2023/10/09 01:32:20;;;;;;;0.75;0.73;;;7.70;99.90;;;;;;5058499;28;20055;-65
2023/10/09 01:34:50;;;;;;;0.63;0.28;;;7.70;99.90;;;;;;5065404;28;20044;-63
2023/10/09 01:37:22;;;;;;;3.97;0.50;;;7.70;99.90;;;;;;5059721;28;20060;-66
2023/10/09 01:39:58;;;;;;;2.50;0.60;;;7.70;99.90;;;;;;5040700;28;20427;-64
2023/10/09 01:42:45;;;;;;;4.05;0.85;;;7.70;99.90;;;;;;5058171;28;20139;-64
2023/10/09 01:47:39;;;;;;;1.00;0.75;;;7.70;99.90;;;;;;5061810;28;20036;-63
2023/10/09 01:50:22;;;;;;;1.88;1.13;;;7.70;99.90;;;;;;5054394;28;20033;-63
2023/10/09 01:52:51;;;;;;;0.32;0.20;;;7.70;99.90;;;;;;5061971;28;20064;-65
2023/10/09 02:00:56;;;;;;;1.17;0.65;;;7.70;99.90;;;;;;5047235;28;20048;-63
2023/10/09 02:03:26;;;;;;;1.13;0.32;;;7.70;99.90;;;;;;5054832;28;20091;-63
2023/10/09 02:05:53;;;;;;;0.50;0.50;;;7.80;99.90;;;;;;5053242;28;20075;-66
2023/10/09 02:08:26;;;;;;;1.30;0.73;;;7.70;99.90;;;;;;5057510;28;20053;-63
2023/10/09 02:10:56;;;;;;;1.17;0.35;;;7.70;99.90;;;;;;5037502;28;20132;-63
2023/10/09 02:13:29;;;;;;;2.60;0.63;;;7.70;99.90;;;;;;5062754;28;20097;-67
2023/10/09 02:16:14;;;;;;;0.88;0.60;;;7.70;99.90;;;;;;5039255;28;20141;-62
2023/10/09 02:18:52;;;;;;;3.22;0.50;;;7.70;99.90;;;;;;5051976;28;20372;-65
2023/10/09 02:24:41;;;;;;;0.85;0.50;;;7.70;99.90;;;;;;5043254;28;20056;-62
2023/10/09 02:27:06;;;;;;;0.90;0.55;;;7.70;99.90;;;;;;5041840;28;20076;-67
2023/10/09 02:29:38;;;;;;;2.67;0.25;;;7.70;99.90;;;;;;5058291;28;20048;-63
2023/10/09 02:32:14;;;;;;;0.82;0.40;;;7.70;99.90;;;;;;5064485;28;20083;-65
2023/10/09 02:34:46;;;;;;;0.77;0.32;;;7.70;99.90;;;;;;5074002;28;20056;-63
2023/10/09 02:37:13;;;;;;;0.40;0.30;;;7.70;99.90;;;;;;5060437;28;20343;-62
2023/10/09 02:39:52;;;;;;;0.52;0.20;;;7.60;99.90;;;;;;5041135;28;20060;-66
2023/10/09 02:42:23;;;;;;;0.82;0.38;;;7.60;99.90;;;;;;5055844;28;20585;-63
2023/10/09 02:44:51;;;;;;;0.40;0.30;;;7.70;99.90;;;;;;5055785;28;20052;-67
2023/10/09 02:47:29;;;;;;;1.20;0.50;;;7.60;99.90;;;;;;5080553;28;20455;-64
2023/10/09 02:50:08;;;;;;;0.47;0.28;;;7.60;99.90;;;;;;5059226;28;20052;-65
2023/10/09 02:52:40;;;;;;;1.95;0.80;;;7.60;99.90;;;;;;5058645;28;20102;-62
2023/10/09 02:55:22;;;;;;;4.82;0.40;;;7.60;99.90;;;;;;5061337;28;20079;-63
2023/10/09 02:57:52;;;;;;;1.05;0.57;;;7.60;99.90;;;;;;5044888;28;20762;-62
2023/10/09 03:00:29;;;;;;;2.15;0.43;;;7.60;99.90;;;;;;5059520;28;20049;-62
2023/10/09 03:02:58;;;;;;;0.50;0.50;;;7.50;99.90;;;;;;5039589;28;20059;-63
2023/10/09 03:05:29;;;;;;;1.08;0.30;;;7.50;99.90;;;;;;5060813;28;20036;-64
2023/10/09 03:07:56;;;;;;;1.45;0.40;;;7.50;99.90;;;;;;5059527;28;20494;-65
2023/10/09 03:10:23;;;;;;;0.63;0.47;;;7.50;99.90;;;;;;5059208;28;20036;-66
2023/10/09 03:12:51;;;;;;;2.08;0.20;;;7.50;99.90;;;;;;5058466;28;20486;-70
2023/10/09 03:15:20;;;;;;;1.50;0.70;;;7.50;99.90;;;;;;5054450;28;20048;-63
2023/10/09 03:17:50;;;;;;;0.60;0.32;;;7.60;99.90;;;;;;5058452;28;20056;-64
2023/10/09 03:20:20;;;;;;;0.38;0.22;;;7.60;99.90;;;;;;5072783;28;20033;-63
2023/10/09 03:22:48;;;;;;;0.77;0.38;;;7.60;99.90;;;;;;5055885;28;20037;-66
2023/10/09 03:25:16;;;;;;;0.40;0.25;;;7.60;99.90;;;;;;5055258;28;20064;-62
2023/10/09 03:27:47;;;;;;;2.08;0.30;;;7.50;99.90;;;;;;5057016;28;20041;-66
2023/10/09 03:30:22;;;;;;;0.77;0.50;;;7.50;99.90;;;;;;5052337;28;20134;-63
2023/10/09 03:32:51;;;;;;;0.52;0.30;;;7.40;99.90;;;;;;5056607;28;20044;-64
2023/10/09 03:35:27;;;;;;;0.60;0.40;;;7.40;99.90;;;;;;5056856;28;20044;-72
2023/10/09 03:38:00;;;;;;;1.25;0.35;;;7.50;99.90;;;;;;5055253;28;20032;-62
2023/10/09 03:40:27;;;;;;;1.27;0.32;;;7.40;99.90;;;;;;5051530;28;20037;-62
2023/10/09 03:42:54;;;;;;;1.27;0.35;;;7.40;99.90;;;;;;5055669;28;20064;-65
2023/10/09 03:45:25;;;;;;;2.30;0.60;;;7.40;99.90;;;;;;5059538;28;20144;-65
2023/10/09 03:48:08;;;;;;;1.00;0.57;;;7.30;99.90;;;;;;5056528;28;20045;-63
2023/10/09 03:50:36;;;;;;;1.30;0.30;;;7.30;99.90;;;;;;5054644;28;20045;-62
2023/10/09 03:53:07;;;;;;;0.40;0.30;;;7.30;99.90;;;;;;5061503;28;20029;-70
2023/10/09 03:55:37;;;;;;;2.40;0.50;;;7.30;99.90;;;;;;5057014;28;20390;-65
2023/10/09 03:58:06;;;;;;;1.90;0.40;;;7.30;99.90;;;;;;5059629;28;20102;-65
2023/10/09 04:00:44;;;;;;;0.35;0.10;;;7.30;99.90;;;;;;5055484;28;20477;-62
2023/10/09 04:03:14;;;;;;;0.38;0.30;;;7.30;99.90;;;;;;5054402;28;20037;-66
2023/10/09 04:05:42;;;;;;;0.17;0.10;;;7.30;99.90;;;;;;5061252;28;20056;-65
2023/10/09 04:08:19;;;;;;;0.38;0.20;;;7.20;99.90;;;;;;5057223;28;20025;-65
2023/10/09 04:10:52;;;;;;;1.48;0.40;;;7.30;99.90;;;;;;5058990;28;20060;-65
2023/10/09 04:13:32;;;;;;;0.40;0.40;;;7.30;99.90;;;;;;5053833;28;20056;-62
2023/10/09 04:16:11;;;;;;;1.65;0.47;;;7.30;99.90;;;;;;5055853;28;20061;-63
2023/10/09 04:18:39;;;;;;;1.60;0.40;;;7.30;99.90;;;;;;5057716;28;20407;-63
2023/10/09 04:21:18;;;;;;;7.43;0.75;;;7.30;99.90;;;;;;5056611;28;20040;-64
2023/10/09 04:26:34;;;;;;;1.48;0.15;;;7.30;99.90;;;;;;5052964;28;20137;-65
2023/10/09 04:29:02;;;;;;;0.33;0.30;;;7.30;99.90;;;;;;5052867;28;20098;-63
2023/10/09 04:31:34;;;;;;;1.58;1.48;;;7.30;99.90;;;;;;5074819;28;20403;-62
2023/10/09 04:34:22;;;;;;;0.75;0.20;;;7.30;99.90;;;;;;5057365;28;20253;-64
2023/10/09 04:36:51;;;;;;;0.25;0.22;;;7.30;99.90;;;;;;5056065;28;20128;-63
2023/10/09 04:42:19;;;;;;;0.45;0.10;;;7.30;99.90;;;;;;5058581;28;20041;-63
2023/10/09 04:47:36;;;;;;;1.38;0.20;;;7.30;99.90;;;;;;5054604;28;20367;-63
2023/10/09 04:50:11;;;;;;;0.35;0.32;;;7.40;99.90;;;;;;5042894;28;20116;-66
2023/10/09 05:03:24;;;;;;;4.07;0.22;;;7.50;99.90;;;;;;5063407;28;20048;-65
2023/10/09 05:06:20;;;;;;;2.50;0.70;;;7.50;99.90;;;;;;5059010;28;20072;-65
2023/10/09 05:08:48;;;;;;;0.93;0.70;;;7.50;99.90;;;;;;5060489;28;20041;-67
2023/10/09 05:11:34;;;;;;;2.83;1.05;;;7.50;99.90;;;;;;5056866;28;20036;-67
2023/10/09 05:14:14;;;;;;;2.65;0.68;;;7.50;99.90;;;;;;5055745;28;20793;-68
2023/10/09 05:16:54;;;;;;;2.15;0.63;;;7.50;99.90;;;;;;5057666;28;20040;-63
2023/10/09 05:19:42;;;;;;;1.55;0.45;;;7.50;99.90;;;;;;5040174;28;20040;-62
2023/10/09 05:22:36;;;;;;;0.77;0.55;;;7.50;99.90;;;;;;5058457;28;20052;-66
2023/10/09 05:25:15;;;;;;;0.52;0.10;;;7.50;99.90;;;;;;5062788;28;20079;-66
2023/10/09 05:27:51;;;;;;;0.68;0.30;;;7.50;99.90;;;;;;5058309;28;20036;-67
2023/10/09 05:30:24;;;;;;;1.35;0.65;;;7.50;99.90;;;;;;5059749;28;20033;-62
2023/10/09 05:32:58;;;;;;;0.40;0.22;;;7.50;99.90;;;;;;5058966;28;20490;-65
2023/10/09 05:35:59;;;;;;;4.95;0.60;;;7.50;99.90;;;;;;5059390;28;20383;-68
2023/10/09 05:38:26;;;;;;;0.68;0.10;;;7.50;99.90;;;;;;5056977;28;20041;-64
2023/10/09 05:41:30;;;;;;;0.80;0.30;;;7.50;99.90;;;;;;5062489;28;20045;-63
2023/10/09 05:46:35;;;;;;;1.15;0.32;;;7.60;99.90;;;;;;5058023;28;20033;-64
2023/10/09 05:49:19;;;;;;;0.82;0.20;;;7.60;99.90;;;;;;5058958;28;20040;-64
2023/10/09 05:51:53;;;;;;;4.68;1.60;;;7.60;99.90;;;;;;5061457;28;20040;-64
2023/10/09 05:54:54;;;;;;;5.85;0.57;;;7.60;99.90;;;;;;5058651;28;20048;-62
2023/10/09 06:05:41;;;;;;;0.30;0.30;;;7.60;99.90;;;;;;5037783;28;20398;-63
2023/10/09 06:08:12;;;;;;;0.77;0.40;;;7.70;99.90;;;;;;5056906;28;20486;-63
2023/10/09 06:10:41;;;;;;;0.32;0.32;;;7.70;99.90;;;;;;5069485;28;20035;-63
2023/10/09 06:13:37;;;;;;;3.58;0.65;;;7.70;99.90;;;;;;5056802;28;20386;-62
2023/10/09 06:18:41;;;;;;;0.20;0.20;;;7.70;99.90;;;;;;5055951;28;20075;-62
2023/10/09 06:21:39;;;;;;;0.30;0.20;;;7.70;99.90;;;;;;5061144;28;20043;-63
2023/10/09 06:24:09;;;;;;;0.70;0.47;;;7.70;99.90;;;;;;5057115;28;20044;-69
2023/10/09 06:26:36;;;;;;;0.30;0.20;;;7.70;99.90;;;;;;5059697;28;20060;-63
2023/10/09 06:29:16;;;;;;;0.30;0.20;;;7.70;99.90;;;;;;5061459;28;20136;-67
2023/10/09 06:31:57;;;;;;;1.63;0.40;;;7.70;99.90;;;;;;5061490;28;20048;-62
2023/10/09 06:34:35;;;;;;;1.95;0.40;;;7.70;99.90;;;;;;5055975;28;20082;-63
2023/10/09 06:40:10;;;;;;;1.13;0.55;;;7.60;99.90;;;;;;5059937;28;20044;-64
2023/10/09 06:45:17;;;;;;;0.45;0.25;;;7.60;99.90;;;;;;5057627;28;20120;-63
2023/10/09 06:54:14;;;;;;;1.02;0.65;;;7.80;99.90;;;;;;5054320;28;20041;-63
2023/10/09 06:57:12;;;;;;;6.18;3.03;;;7.80;99.90;;;;;;5053641;28;20057;-65
2023/10/09 06:59:24;;;;;;;3.80;0.80;;;7.90;99.90;;;;;;5057338;28;20064;-67
2023/10/09 07:07:13;;;;;;;0.80;0.77;;;8.00;99.90;;;;;;5055791;28;20036;-62
2023/10/09 07:09:43;;;;;;;1.05;0.40;;;8.10;99.90;;;;;;5059520;28;20353;-63
2023/10/09 07:12:20;;;;;;;0.75;0.32;;;8.10;99.90;;;;;;5057790;28;20056;-62
2023/10/09 07:24:58;;;;;;;2.75;0.40;;;8.20;99.90;;;;;;5056218;28;20037;-62
2023/10/09 07:27:43;;;;;;;0.82;0.20;;;8.20;99.90;;;;;;5063427;28;20046;-63
2023/10/09 07:33:16;;;;;;;1.05;0.20;;;8.30;99.90;;;;;;5059826;28;20437;-68
2023/10/09 07:35:47;;;;;;;2.38;0.50;;;8.30;99.90;;;;;;5057373;28;20097;-66
2023/10/09 07:38:19;;;;;;;0.25;0.20;;;8.40;99.90;;;;;;5053840;28;20140;-66
2023/10/09 07:46:32;;;;;;;1.67;0.40;;;8.50;99.90;;;;;;5054351;28;20493;-65
2023/10/09 07:49:12;;;;;;;0.15;0.15;;;8.50;99.90;;;;;;5056936;28;20041;-62
2023/10/09 07:51:43;;;;;;;1.42;0.40;;;8.50;99.90;;;;;;5058274;28;20056;-62
2023/10/09 07:54:14;;;;;;;0.80;0.22;;;8.50;99.90;;;;;;5053338;28;20041;-62
2023/10/09 07:56:46;;;;;;;1.10;0.40;;;8.60;99.90;;;;;;5053375;28;20049;-67
2023/10/09 07:59:18;;;;;;;0.68;0.20;;;8.60;99.90;;;;;;5055812;28;20044;-65
2023/10/09 08:01:52;;;;;;;0.10;0.10;;;8.60;99.90;;;;;;5058129;28;20065;-65
2023/10/09 08:07:19;;;;;;;0.47;0.32;;;8.80;99.90;;;;;;5055942;28;20041;-63
2023/10/09 08:15:21;;;;;;;0.45;0.20;;;8.80;99.90;;;;;;5056781;28;20135;-62
2023/10/09 08:17:53;;;;;;;0.80;0.30;;;8.90;99.90;;;;;;5056644;28;20443;-64
2023/10/09 08:20:25;;;;;;;1.27;0.30;;;8.90;99.90;;;;;;5054990;28;20124;-64
2023/10/09 08:22:55;;;;;;;1.27;0.15;;;9.00;99.90;;;;;;5058333;28;20382;-63
2023/10/09 08:25:27;;;;;;;1.38;0.10;;;9.00;99.90;;;;;;5053403;28;20157;-74
2023/10/09 08:28:18;;;;;;;0.15;0.15;;;9.00;99.90;;;;;;5055056;28;20048;-62
2023/10/09 08:36:07;;;;;;;2.13;0.30;;;9.10;99.90;;;;;;5053191;28;20041;-64
2023/10/09 08:38:35;;;;;;;1.45;0.40;;;9.10;99.90;;;;;;5056453;28;20060;-69
2023/10/09 08:41:17;;;;;;;0.98;0.20;;;9.10;99.90;;;;;;5058513;28;20137;-65
2023/10/09 08:43:52;;;;;;;0.75;0.38;;;9.10;99.90;;;;;;5056846;28;20036;-65
2023/10/09 08:46:26;;;;;;;2.03;0.47;;;9.20;99.90;;;;;;5054481;28;20097;-63
2023/10/09 08:49:05;;;;;;;0.93;0.30;;;9.20;99.90;;;;;;5057147;28;20040;-63
2023/10/09 08:51:35;;;;;;;1.55;0.20;;;9.30;99.90;;;;;;5055772;28;20041;-70
2023/10/09 08:54:02;;;;;;;0.55;0.13;;;9.30;99.90;;;;;;5052544;28;20052;-64
2023/10/09 08:56:29;;;;;;;0.50;0.20;;;9.30;99.90;;;;;;5055236;28;20087;-62
2023/10/09 08:58:57;;;;;;;0.08;0.08;;;9.30;99.90;;;;;;5056680;28;20090;-63
2023/10/09 09:01:25;;;;;;;0.38;0.13;;;9.30;99.90;;;;;;5056125;28;20033;-63
2023/10/09 09:03:56;;;;;;;1.98;0.40;;;9.30;99.90;;;;;;5054841;28;20041;-65
2023/10/09 09:06:23;;;;;;;0.20;0.20;;;9.30;99.90;;;;;;5060622;28;20091;-67
2023/10/09 09:08:59;;;;;;;0.25;0.10;;;9.30;99.90;;;;;;5055779;28;20036;-63
2023/10/09 09:11:30;;;;;;;0.82;0.17;;;9.30;99.90;;;;;;5054043;28;20119;-63
2023/10/09 09:14:12;;;;;;;0.63;0.30;;;9.30;99.90;;;;;;5052647;28;20045;-67
2023/10/09 09:16:44;;;;;;;0.40;0.20;;;9.40;99.90;;;;;;5056402;28;20102;-63
2023/10/09 09:19:17;;;;;;;2.30;0.20;;;9.40;99.90;;;;;;5053930;28;20040;-66
2023/10/09 09:22:02;;;;;;;0.75;0.30;;;9.50;99.90;;;;;;5057881;28;20041;-65
2023/10/09 09:24:38;;;;;;;0.32;0.30;;;9.60;99.90;;;;;;5054817;28;20426;-62
2023/10/09 09:27:31;;;;;;;0.47;0.25;;;9.60;99.90;;;;;;5051190;28;20095;-68
2023/10/09 09:30:07;;;;;;;1.90;0.38;;;9.60;99.90;;;;;;5055135;28;20040;-65
2023/10/09 09:32:38;;;;;;;0.35;0.22;;;9.60;99.90;;;;;;5051168;28;20128;-64
2023/10/09 09:35:17;;;;;;;0.98;0.30;;;9.60;99.90;;;;;;5054374;28;20064;-63
2023/10/09 09:37:53;;;;;;;0.40;0.30;;;9.60;99.90;;;;;;5053104;28;20743;-66
2023/10/09 09:40:30;;;;;;;0.82;0.20;;;9.60;99.90;;;;;;5053615;28;20289;-63
2023/10/09 09:43:05;;;;;;;0.22;0.22;;;9.60;99.90;;;;;;5056947;28;20036;-62
2023/10/09 09:45:37;;;;;;;0.95;0.52;;;9.60;99.90;;;;;;5057640;28;20443;-64
2023/10/09 09:48:10;;;;;;;0.52;0.38;;;9.70;99.90;;;;;;5060955;28;20119;-65
2023/10/09 09:50:43;;;;;;;0.32;0.20;;;9.70;99.90;;;;;;5057559;28;20128;-71
2023/10/09 09:53:17;;;;;;;0.93;0.40;;;9.70;99.90;;;;;;5060563;28;20151;-62
2023/10/09 09:55:55;;;;;;;0.30;0.30;;;9.80;99.90;;;;;;5061361;28;20052;-62
2023/10/09 09:58:41;;;;;;;0.25;0.20;;;9.90;99.90;;;;;;5056152;28;20124;-63
2023/10/09 10:01:24;;;;;;;0.52;0.50;;;10.00;99.90;;;;;;5056504;28;20029;-71
2023/10/09 10:04:00;;;;;;;1.02;0.30;;;10.00;99.90;;;;;;5061546;28;20122;-62
2023/10/09 10:06:32;;;;;;;0.10;0.10;;;10.00;99.90;;;;;;5057258;28;20068;-67
2023/10/09 10:08:59;;;;;;;1.65;0.30;;;10.00;99.90;;;;;;5052957;28;20117;-63
2023/10/09 10:11:54;;;;;;;0.98;0.30;;;10.10;99.90;;;;;;5063823;28;20080;-63
2023/10/09 10:14:31;;;;;;;0.30;0.20;;;10.10;99.90;;;;;;5057320;28;20370;-63
2023/10/09 10:17:20;;;;;;;0.50;0.20;;;10.10;99.90;;;;;;5057195;28;20056;-74
2023/10/09 10:22:47;;;;;;;1.15;0.40;;;10.00;99.90;;;;;;5060679;28;20040;-66
2023/10/09 10:25:32;;;;;;;0.43;0.20;;;9.90;99.90;;;;;;5057766;28;20417;-63
2023/10/09 10:28:28;;;;;;;0.75;0.10;;;10.00;99.90;;;;;;5056381;28;20087;-67
2023/10/09 10:30:59;;;;;;;0.75;0.32;;;10.00;99.90;;;;;;5058001;28;20521;-66
2023/10/09 10:33:56;;;;;;;0.17;0.10;;;10.00;99.90;;;;;;5058224;28;20041;-63
2023/10/09 10:36:26;;;;;;;1.65;0.73;;;10.20;99.90;;;;;;5057432;28;20041;-63
2023/10/09 10:41:57;;;;;;;3.85;0.43;;;10.30;99.90;;;;;;5060025;28;20048;-63
2023/10/09 10:44:41;;;;;;;1.85;0.57;;;10.20;99.90;;;;;;5056325;28;20105;-63
2023/10/09 10:47:22;;;;;;;0.85;0.57;;;10.30;99.90;;;;;;5057801;28;20041;-65
2023/10/09 10:49:52;;;;;;;4.65;1.25;;;10.30;99.90;;;;;;5058025;28;20122;-63
2023/10/09 10:58:09;;;;;;;0.40;0.20;;;10.30;99.90;;;;;;5057567;28;20045;-67
2023/10/09 11:01:11;;;;;;;0.28;0.25;;;10.30;99.90;;;;;;5059735;28;20041;-63
2023/10/09 11:03:35;;;;;;;1.63;0.55;;;10.30;99.90;;;;;;5039004;28;20420;-67
2023/10/09 11:06:13;;;;;;;0.30;0.20;;;10.20;99.90;;;;;;5057752;28;20055;-64
2023/10/09 11:08:57;;;;;;;0.00;0.00;;;10.20;99.90;;;;;;5058074;28;20045;-63
2023/10/09 11:11:32;;;;;;;0.38;0.13;;;10.20;99.90;;;;;;5057416;28;20045;-64
2023/10/09 11:14:14;;;;;;;7.20;0.50;;;10.20;99.90;;;;;;5059017;28;20036;-62
2023/10/09 11:16:42;;;;;;;0.90;0.63;;;10.20;99.90;;;;;;5058621;28;20041;-63
2023/10/09 11:19:31;;;;;;;0.73;0.20;;;10.20;99.90;;;;;;5059022;28;20379;-67
2023/10/09 11:24:34;;;;;;;0.52;0.30;;;10.20;99.90;;;;;;5057997;28;20063;-71
2023/10/09 11:27:06;;;;;;;0.43;0.20;;;10.10;99.90;;;;;;5054266;28;20043;-65
2023/10/09 11:32:25;;;;;;;0.32;0.17;;;10.20;99.90;;;;;;5053880;28;20087;-66
2023/10/09 11:35:28;;;;;;;0.73;0.38;;;10.00;99.90;;;;;;5058245;28;20541;-62
2023/10/09 11:37:56;;;;;;;0.32;0.20;;;10.00;99.90;;;;;;5053799;28;20413;-65
2023/10/09 11:40:49;;;;;;;0.43;0.32;;;10.10;99.90;;;;;;5060476;28;20044;-62
2023/10/09 11:43:17;;;;;;;0.68;0.30;;;10.10;99.90;;;;;;5057786;28;20060;-65
2023/10/09 11:45:54;;;;;;;1.38;0.10;;;10.20;99.90;;;;;;5057914;28;20048;-63
2023/10/09 11:48:32;;;;;;;1.17;0.25;;;10.30;99.90;;;;;;5057638;28;20040;-63
2023/10/09 11:53:49;;;;;;;1.98;0.32;;;10.30;99.90;;;;;;5054957;28;20127;-63
2023/10/09 11:56:19;;;;;;;0.30;0.20;;;10.40;99.90;;;;;;5052190;28;20040;-64
2023/10/09 11:58:50;;;;;;;0.88;0.30;;;10.40;99.90;;;;;;5056106;28;20047;-63
2023/10/09 12:01:20;;;;;;;1.75;0.50;;;10.30;99.90;;;;;;5055588;28;20134;-63
2023/10/09 12:03:52;;;;;;;0.60;0.20;;;10.30;99.90;;;;;;5056385;28;20049;-62
2023/10/09 12:06:22;;;;;;;0.52;0.20;;;10.40;99.90;;;;;;5057342;28;20043;-64
2023/10/09 12:08:50;;;;;;;0.17;0.13;;;10.50;99.90;;;;;;5052997;28;20032;-65
2023/10/09 12:11:28;;;;;;;0.95;0.63;;;10.50;99.90;;;;;;5057199;28;20039;-62
2023/10/09 12:14:00;;;;;;;0.60;0.30;;;10.40;99.90;;;;;;5054921;28;20128;-62
2023/10/09 12:16:27;;;;;;;0.75;0.45;;;10.50;99.90;;;;;;5058306;28;20040;-62
2023/10/09 12:18:56;;;;;;;1.88;0.30;;;10.50;99.90;;;;;;5056442;28;20044;-63
2023/10/09 12:21:23;;;;;;;3.00;0.52;;;10.50;99.90;;;;;;5053507;28;20048;-64
2023/10/09 12:23:50;;;;;;;1.45;1.20;;;10.50;99.90;;;;;;5056130;28;20043;-63
2023/10/09 12:26:17;;;;;;;1.38;0.57;;;10.50;99.90;;;;;;5058164;28;20045;-65
2023/10/09 12:28:45;;;;;;;0.95;0.30;;;10.50;99.90;;;;;;5056970;28;20044;-63
2023/10/09 12:31:20;;;;;;;0.30;0.20;;;10.60;99.90;;;;;;5057901;28;20554;-65
2023/10/09 12:33:49;;;;;;;0.75;0.30;;;10.50;99.90;;;;;;5058887;28;20036;-62
2023/10/09 12:36:23;;;;;;;0.85;0.32;;;10.50;99.90;;;;;;5059575;28;20083;-63
2023/10/09 12:38:53;;;;;;;0.57;0.10;;;10.40;99.90;;;;;;5054765;28;20067;-64
2023/10/09 12:41:27;;;;;;;2.38;0.35;;;10.40;99.90;;;;;;5054920;28;20144;-63
2023/10/09 12:43:57;;;;;;;1.15;0.68;;;10.30;99.90;;;;;;5054786;28;20120;-70
2023/10/09 12:46:26;;;;;;;2.13;0.30;;;10.30;99.90;;;;;;5058606;28;20036;-66
2023/10/09 12:48:54;;;;;;;1.80;0.43;;;10.40;99.90;;;;;;5054584;28;20052;-63
2023/10/09 12:51:29;;;;;;;0.73;0.30;;;10.40;99.90;;;;;;5051339;28;20122;-62
2023/10/09 12:53:57;;;;;;;2.05;0.30;;;10.40;99.90;;;;;;5054459;28;20044;-63
2023/10/09 12:56:37;;;;;;;0.55;0.30;;;10.40;99.90;;;;;;5054450;28;20051;-63
2023/10/09 12:59:05;;;;;;;;;;;10.40;99.90;;;;;;5055951;28;20049;-62
2023/10/09 13:01:32;;;;;;;0.57;0.13;;;10.40;99.90;;;;;;5055549;28;19925;-63
2023/10/09 13:04:11;;;;;;;0.88;0.55;;;10.30;99.90;;;;;;5056692;28;20122;-62
2023/10/09 13:06:45;;;;;;;1.40;0.20;;;10.30;99.90;;;;;;5056914;28;20084;-63
2023/10/09 13:09:24;;;;;;;0.43;0.25;;;10.40;99.90;;;;;;5056930;28;20037;-62
2023/10/09 13:11:51;;;;;;;0.90;0.45;;;10.50;99.90;;;;;;5053270;28;20037;-62
2023/10/09 13:14:21;;;;;;;1.05;0.47;;;10.50;99.90;;;;;;5056461;28;20128;-63
2023/10/09 13:16:52;;;;;;;2.25;0.35;;;10.40;99.90;;;;;;5059896;28;20044;-64
2023/10/09 13:19:24;;;;;;;0.30;0.22;;;10.50;99.90;;;;;;5062752;28;20045;-68
2023/10/09 13:21:51;;;;;;;0.55;0.30;;;10.50;99.90;;;;;;5060168;28;20049;-64
2023/10/09 13:24:24;;;;;;;2.15;0.30;;;10.60;99.90;;;;;;5060633;28;20028;-62
2023/10/09 13:26:53;;;;;;;0.60;0.40;;;10.50;99.90;;;;;;5056535;28;20044;-62
2023/10/09 13:29:22;;;;;;;1.85;0.50;;;10.40;99.90;;;;;;5060993;28;20711;-64
2023/10/09 13:31:57;;;;;;;0.65;0.20;;;10.40;99.90;;;;;;5061176;28;20040;-62
2023/10/09 13:34:27;;;;;;;2.03;0.30;;;10.40;99.90;;;;;;5059863;28;20036;-63
2023/10/09 13:37:04;;;;;;;0.60;0.30;;;10.50;99.90;;;;;;5061043;28;20518;-64
2023/10/09 13:39:38;;;;;;;1.15;0.40;;;10.50;99.90;;;;;;5058784;28;20073;-63
2023/10/09 13:42:07;;;;;;;0.52;0.38;;;10.50;99.90;;;;;;5062257;28;21633;-67
2023/10/09 13:44:36;;;;;;;0.75;0.50;;;10.50;99.90;;;;;;5063995;28;20044;-63
2023/10/09 13:47:05;;;;;;;1.50;0.50;;;10.40;99.90;;;;;;5058807;28;20048;-63
2023/10/09 13:49:34;;;;;;;1.65;0.30;;;10.50;99.90;;;;;;5060220;28;20081;-64
2023/10/09 13:52:02;;;;;;;2.42;0.60;;;10.60;99.90;;;;;;5057136;28;20055;-63
2023/10/09 13:57:05;;;;;;;0.95;0.30;;;10.90;99.90;;;;;;5064876;28;20094;-63
2023/10/09 13:59:34;;;;;;;0.70;0.25;;;10.70;99.90;;;;;;5061400;28;20049;-64
2023/10/09 14:02:08;;;;;;;1.52;1.42;;;10.60;99.90;;;;;;5058179;28;20137;-62
2023/10/09 14:04:36;;;;;;;3.10;0.40;;;10.50;99.90;;;;;;5062035;28;20123;-62
2023/10/09 14:07:05;;;;;;;1.05;0.60;;;10.30;99.90;;;;;;5059156;28;20045;-63
2023/10/09 14:09:44;;;;;;;0.32;0.20;;;10.30;99.90;;;;;;5056028;28;20457;-66
2023/10/09 14:12:14;;;;;;;1.23;0.60;;;10.10;99.90;;;;;;5055295;28;20108;-64
2023/10/09 14:14:48;;;;;;;0.77;0.40;;;9.90;99.90;;;;;;5058090;28;20129;-63
2023/10/09 14:17:18;;;;;;;2.63;1.02;;;9.90;99.90;;;;;;5058714;28;20048;-62
2023/10/09 14:19:47;;;;;;;0.45;0.43;;;9.90;99.90;;;;;;5058172;28;20041;-66
2023/10/09 14:22:16;;;;;;;1.67;0.95;;;10.00;99.90;;;;;;5059345;28;20037;-65
2023/10/09 14:24:47;;;;;;;1.83;0.65;;;10.10;99.90;;;;;;5059777;28;20439;-63
2023/10/09 14:27:19;;;;;;;1.25;0.60;;;10.30;99.90;;;;;;5058968;28;20065;-65
2023/10/09 14:29:49;;;;;;;2.08;0.80;;;10.40;99.90;;;;;;5057795;28;20040;-64
2023/10/09 14:32:16;;;;;;;0.75;0.45;;;10.40;99.90;;;;;;5058809;28;20052;-64
2023/10/09 14:34:50;;;;;;;0.60;0.50;;;10.30;99.90;;;;;;5060974;28;20115;-64
2023/10/09 14:37:20;;;;;;;0.30;0.30;;;10.30;99.90;;;;;;5059091;28;20123;-63
2023/10/09 14:39:50;;;;;;;1.08;1.08;;;10.40;99.90;;;;;;5062782;28;20371;-65
2023/10/09 14:42:20;;;;;;;1.80;1.10;;;10.50;99.90;;;;;;5055266;28;20576;-64
2023/10/09 14:44:47;;;;;;;1.67;1.58;;;10.70;99.90;;;;;;5058527;28;20102;-63
2023/10/09 14:47:14;;;;;;;3.50;1.15;;;10.70;99.90;;;;;;5059793;28;20094;-62
2023/10/09 14:49:46;;;;;;;1.42;1.05;;;10.60;99.90;;;;;;5059285;28;20046;-64
2023/10/09 14:52:20;;;;;;;2.55;0.75;;;10.40;99.90;;;;;;5063184;28;20033;-63
2023/10/09 14:54:47;;;;;;;1.05;0.70;;;10.20;99.90;;;;;;5056329;28;20669;-64
2023/10/09 14:57:14;;;;;;;2.60;0.77;;;10.10;99.90;;;;;;5055550;28;20028;-62
2023/10/09 14:59:44;;;;;;;1.00;0.90;;;10.00;99.90;;;;;;5059505;28;20080;-64
2023/10/09 15:02:15;;;;;;;1.67;0.60;;;9.90;99.90;;;;;;5057909;28;20048;-62
2023/10/09 15:04:42;;;;;;;1.38;0.70;;;9.90;99.90;;;;;;5059071;28;20601;-69
2023/10/09 15:07:09;;;;;;;1.02;0.57;;;9.80;99.90;;;;;;5057016;28;20045;-63
2023/10/09 15:09:36;;;;;;;0.57;0.20;;;9.70;99.90;;;;;;5055432;28;20048;-62
2023/10/09 15:12:07;;;;;;;2.45;0.50;;;9.70;99.90;;;;;;5056569;28;20355;-62
2023/10/09 15:14:34;;;;;;;0.50;0.40;;;9.70;99.90;;;;;;5054060;28;20036;-65
2023/10/09 15:17:02;;;;;;;1.67;1.02;;;9.70;99.90;;;;;;5057169;28;20036;-63
2023/10/09 15:19:30;;;;;;;1.88;0.75;;;9.60;99.90;;;;;;5056350;28;20062;-63
2023/10/09 15:21:58;;;;;;;1.25;1.15;;;9.50;99.90;;;;;;5056221;28;20099;-65
2023/10/09 15:24:27;;;;;;;0.73;0.52;;;9.40;99.90;;;;;;5057782;28;20041;-64